createdAt,value
2018-12-04T00:00:26.365Z,60.3
2018-12-04T00:01:26.392Z,48.3
2018-12-04T00:02:26.463Z,51.3
2018-12-04T00:03:26.453Z,60.3
2018-12-04T00:04:26.359Z,66.4
2018-12-04T00:05:26.323Z,60.3
2018-12-04T00:06:26.351Z,57.3
2018-12-04T00:07:26.381Z,63.4
2018-12-04T00:08:26.413Z,54.3
2018-12-04T00:09:26.360Z,57.3
2018-12-04T00:10:26.325Z,54.3
2018-12-04T00:11:26.363Z,51.3
2018-12-04T00:12:26.354Z,66.4
2018-12-04T00:13:26.421Z,48.3
2018-12-04T00:14:28.606Z,45.3
2018-12-04T00:15:26.349Z,60.3
2018-12-04T00:16:27.050Z,48.3
2018-12-04T00:17:26.350Z,60.3
2018-12-04T00:18:26.416Z,51.3
2018-12-04T00:19:26.439Z,48.3
2018-12-04T00:20:26.379Z,45.3
2018-12-04T00:21:26.334Z,54.3
2018-12-04T00:22:26.368Z,45.3
2018-12-04T00:23:26.358Z,45.3
2018-12-04T00:24:26.434Z,63.4
2018-12-04T00:25:26.438Z,57.3
2018-12-04T00:26:26.345Z,54.3
2018-12-04T00:27:26.361Z,36.3
2018-12-04T00:28:26.424Z,60.3
2018-12-04T00:29:26.401Z,72.4
2018-12-04T00:30:26.435Z,60.3
2018-12-04T00:31:26.353Z,60.3
2018-12-04T00:32:26.323Z,42.3
2018-12-04T00:33:26.407Z,81.4
2018-12-04T00:34:26.354Z,75.4
2018-12-04T00:35:26.320Z,72.4
2018-12-04T00:36:26.436Z,66.4
2018-12-04T00:37:26.339Z,51.3
2018-12-04T00:38:26.320Z,66.4
2018-12-04T00:39:26.375Z,63.4
2018-12-04T00:40:26.349Z,75.4
2018-12-04T00:41:26.431Z,60.3
2018-12-04T00:42:26.355Z,54.3
2018-12-04T00:43:26.317Z,60.3
2018-12-04T00:44:26.357Z,60.3
2018-12-04T00:45:26.346Z,63.4
2018-12-04T00:46:26.423Z,54.3
2018-12-04T00:47:26.354Z,45.3
2018-12-04T00:48:26.319Z,36.3
2018-12-04T00:49:26.326Z,39.3
2018-12-04T00:50:26.427Z,45.3
2018-12-04T00:51:26.351Z,63.4
2018-12-04T00:52:26.343Z,57.3
2018-12-04T00:53:26.349Z,45.3
2018-12-04T00:54:26.312Z,42.3
2018-12-04T00:55:26.479Z,57.3
2018-12-04T00:56:26.360Z,51.3
2018-12-04T00:57:26.354Z,51.3
2018-12-04T00:58:26.350Z,48.3
2018-12-04T00:59:26.312Z,63.4
2018-12-04T01:00:26.403Z,60.3
2018-12-04T01:01:26.424Z,60.3
2018-12-04T01:02:26.399Z,51.3
2018-12-04T01:03:26.352Z,42.3
2018-12-04T01:04:26.339Z,48.3
2018-12-04T01:05:26.322Z,42.3
2018-12-04T01:06:26.414Z,57.3
2018-12-04T01:07:26.342Z,54.3
2018-12-04T01:08:26.346Z,63.4
2018-12-04T01:09:26.388Z,60.3
2018-12-04T01:10:26.315Z,51.3
2018-12-04T01:11:26.427Z,39.3
2018-12-04T01:12:26.336Z,39.3
2018-12-04T01:13:26.347Z,48.3
2018-12-04T01:14:26.422Z,36.3
2018-12-04T01:15:26.318Z,54.3
2018-12-04T01:16:26.331Z,51.3
2018-12-04T01:17:26.345Z,48.3
2018-12-04T01:18:26.393Z,60.3
2018-12-04T01:19:26.336Z,54.3
2018-12-04T01:20:26.342Z,45.3
2018-12-04T01:21:26.301Z,42.3
2018-12-04T01:22:26.405Z,54.3
2018-12-04T01:23:26.345Z,45.3
2018-12-04T01:24:26.357Z,54.3
2018-12-04T01:25:26.400Z,51.3
2018-12-04T01:26:26.386Z,45.3
2018-12-04T01:27:26.339Z,54.3
2018-12-04T01:28:26.341Z,51.3
2018-12-04T01:29:26.332Z,33.3
2018-12-04T01:30:26.401Z,48.3
2018-12-04T01:31:26.402Z,63.4
2018-12-04T01:32:26.294Z,54.3
2018-12-04T01:33:26.330Z,51.3
2018-12-04T01:34:26.511Z,36.3
2018-12-04T01:35:26.387Z,54.3
2018-12-04T01:36:26.403Z,63.4
2018-12-04T01:37:26.303Z,45.3
2018-12-04T01:38:26.330Z,45.3
2018-12-04T01:39:26.407Z,60.3
2018-12-04T01:40:26.338Z,51.3
2018-12-04T01:41:26.399Z,45.3
2018-12-04T01:42:26.330Z,60.3
2018-12-04T01:43:26.322Z,54.3
2018-12-04T01:44:26.399Z,45.3
2018-12-04T01:45:26.394Z,63.4
2018-12-04T01:46:26.347Z,57.3
2018-12-04T01:47:26.419Z,42.3
2018-12-04T01:48:26.297Z,54.3
2018-12-04T01:49:26.331Z,45.3
2018-12-04T01:50:26.325Z,63.4
2018-12-04T01:51:26.348Z,60.3
2018-12-04T01:52:26.416Z,48.3
2018-12-04T01:53:26.396Z,57.3
2018-12-04T01:54:26.353Z,51.3
2018-12-04T01:55:26.331Z,54.3
2018-12-04T01:56:26.334Z,57.3
2018-12-04T01:57:26.389Z,48.3
2018-12-04T01:58:26.420Z,54.3
2018-12-04T01:59:26.305Z,81.4
2018-12-04T02:00:26.345Z,48.3
2018-12-04T02:01:26.320Z,81.4
2018-12-04T02:02:26.327Z,54.3
2018-12-04T02:03:26.329Z,54.3
2018-12-04T02:04:26.369Z,60.3
2018-12-04T02:05:26.325Z,66.4
2018-12-04T02:06:26.340Z,60.3
2018-12-04T02:07:26.318Z,78.4
2018-12-04T02:08:26.318Z,72.4
2018-12-04T02:09:26.321Z,60.3
2018-12-04T02:10:26.290Z,54.3
2018-12-04T02:11:26.332Z,63.4
2018-12-04T02:12:26.324Z,66.4
2018-12-04T02:13:26.398Z,66.4
2018-12-04T02:14:26.325Z,54.3
2018-12-04T02:15:26.307Z,78.4
2018-12-04T02:16:26.297Z,63.4
2018-12-04T02:17:26.308Z,60.3
2018-12-04T02:18:26.392Z,54.3
2018-12-04T02:19:26.329Z,42.3
2018-12-04T02:20:26.325Z,57.3
2018-12-04T02:21:26.282Z,48.3
2018-12-04T02:22:26.395Z,48.3
2018-12-04T02:23:26.321Z,51.3
2018-12-04T02:24:26.326Z,54.3
2018-12-04T02:25:26.379Z,57.3
2018-12-04T02:26:26.298Z,30.3
2018-12-04T02:27:26.333Z,60.3
2018-12-04T02:28:26.307Z,30.3
2018-12-04T02:29:26.323Z,54.3
2018-12-04T02:30:26.402Z,51.3
2018-12-04T02:31:26.320Z,78.4
2018-12-04T02:32:26.295Z,57.3
2018-12-04T02:33:26.366Z,54.3
2018-12-04T02:34:26.324Z,51.3
2018-12-04T02:35:26.367Z,60.3
2018-12-04T02:36:26.324Z,60.3
2018-12-04T02:37:26.278Z,57.3
2018-12-04T02:38:26.287Z,96.5
2018-12-04T02:39:26.325Z,84.4
2018-12-04T02:40:26.385Z,84.4
2018-12-04T02:41:26.303Z,72.4
2018-12-04T02:42:26.318Z,81.4
2018-12-04T02:43:26.329Z,87.4
2018-12-04T02:44:26.333Z,75.4
2018-12-04T02:45:26.334Z,75.4
2018-12-04T02:46:26.310Z,63.4
2018-12-04T02:47:26.393Z,69.4
2018-12-04T02:48:26.281Z,84.4
2018-12-04T02:49:26.309Z,87.4
2018-12-04T02:50:26.313Z,84.4
2018-12-04T02:51:26.370Z,84.4
2018-12-04T02:52:26.318Z,81.4
2018-12-04T02:53:26.313Z,75.4
2018-12-04T02:54:26.282Z,75.4
2018-12-04T02:55:26.402Z,66.4
2018-12-04T02:56:26.320Z,81.4
2018-12-04T02:57:26.314Z,72.4
2018-12-04T02:58:26.302Z,75.4
2018-12-04T02:59:26.289Z,75.4
2018-12-04T03:00:26.380Z,75.4
2018-12-04T03:01:26.316Z,78.4
2018-12-04T03:02:26.309Z,75.4
2018-12-04T03:03:26.308Z,72.4
2018-12-04T03:04:26.287Z,75.4
2018-12-04T03:05:26.297Z,69.4
2018-12-04T03:06:26.317Z,66.4
2018-12-04T03:07:26.381Z,69.4
2018-12-04T03:08:26.304Z,69.4
2018-12-04T03:09:26.308Z,60.3
2018-12-04T03:10:26.276Z,66.4
2018-12-04T03:11:26.308Z,87.4
2018-12-04T03:12:26.395Z,87.4
2018-12-04T03:13:26.376Z,87.4
2018-12-04T03:14:26.314Z,81.4
2018-12-04T03:15:26.285Z,81.4
2018-12-04T03:16:26.310Z,72.4
2018-12-04T03:17:26.362Z,66.4
2018-12-04T03:18:26.312Z,75.4
2018-12-04T03:19:26.301Z,72.4
2018-12-04T03:20:26.356Z,84.4
2018-12-04T03:21:26.333Z,84.4
2018-12-04T03:22:26.299Z,81.4
2018-12-04T03:23:26.305Z,87.4
2018-12-04T03:24:26.303Z,81.4
2018-12-04T03:25:26.378Z,78.4
2018-12-04T03:26:26.298Z,75.4
2018-12-04T03:27:26.310Z,93.5
2018-12-04T03:28:26.295Z,75.4
2018-12-04T03:29:26.297Z,90.4
2018-12-04T03:30:26.365Z,99.5
2018-12-04T03:31:26.288Z,93.5
2018-12-04T03:32:26.287Z,90.4
2018-12-04T03:33:26.325Z,93.5
2018-12-04T03:34:26.315Z,84.4
2018-12-04T03:35:26.357Z,93.5
2018-12-04T03:36:26.298Z,99.5
2018-12-04T03:37:26.269Z,93.5
2018-12-04T03:38:26.293Z,96.5
2018-12-04T03:39:26.355Z,99.5
2018-12-04T03:40:26.353Z,87.4
2018-12-04T03:41:26.300Z,87.4
2018-12-04T03:42:26.390Z,90.4
2018-12-04T03:43:26.299Z,99.5
2018-12-04T03:44:26.295Z,75.4
2018-12-04T03:45:26.368Z,87.4
2018-12-04T03:46:26.355Z,90.4
2018-12-04T03:47:26.298Z,84.4
2018-12-04T03:48:26.327Z,96.5
2018-12-04T03:49:26.299Z,66.4
2018-12-04T03:50:26.353Z,78.4
2018-12-04T03:51:26.358Z,75.4
2018-12-04T03:52:26.292Z,69.4
2018-12-04T03:53:26.268Z,66.4
2018-12-04T03:54:26.261Z,72.4
2018-12-04T03:55:26.288Z,54.3
2018-12-04T03:56:26.366Z,60.3
2018-12-04T03:57:26.355Z,57.3
2018-12-04T03:58:26.279Z,48.3
2018-12-04T03:59:26.266Z,66.4
2018-12-04T04:00:26.298Z,69.4
2018-12-04T04:01:26.297Z,66.4
2018-12-04T04:02:26.351Z,72.4
2018-12-04T04:03:26.291Z,69.4
2018-12-04T04:04:26.261Z,69.4
2018-12-04T04:05:26.249Z,81.4
2018-12-04T04:06:26.287Z,81.4
2018-12-04T04:07:26.330Z,81.4
2018-12-04T04:08:26.287Z,81.4
2018-12-04T04:09:26.369Z,81.4
2018-12-04T04:10:26.251Z,78.4
2018-12-04T04:11:26.296Z,81.4
2018-12-04T04:12:26.272Z,63.4
2018-12-04T04:13:26.288Z,69.4
2018-12-04T04:14:26.360Z,84.4
2018-12-04T04:15:26.260Z,75.4
2018-12-04T04:16:26.297Z,66.4
2018-12-04T04:17:26.302Z,63.4
2018-12-04T04:18:26.367Z,57.3
2018-12-04T04:19:26.286Z,63.4
2018-12-04T04:20:26.358Z,54.3
2018-12-04T04:21:26.249Z,48.3
2018-12-04T04:22:26.278Z,51.3
2018-12-04T04:23:26.277Z,51.3
2018-12-04T04:24:26.281Z,60.3
2018-12-04T04:25:26.358Z,54.3
2018-12-04T04:26:26.275Z,45.3
2018-12-04T04:27:26.246Z,48.3
2018-12-04T04:28:26.255Z,51.3
2018-12-04T04:29:26.284Z,48.3
2018-12-04T04:30:26.334Z,60.3
2018-12-04T04:31:26.284Z,75.4
2018-12-04T04:32:26.307Z,54.3
2018-12-04T04:33:26.283Z,66.4
2018-12-04T04:34:26.270Z,75.4
2018-12-04T04:35:26.343Z,72.4
2018-12-04T04:36:26.272Z,66.4
2018-12-04T04:37:26.240Z,63.4
2018-12-04T04:38:26.283Z,81.4
2018-12-04T04:39:26.285Z,72.4
2018-12-04T04:40:26.362Z,99.5
2018-12-04T04:41:26.266Z,96.5
2018-12-04T04:42:26.244Z,93.5
2018-12-04T04:43:26.261Z,81.4
2018-12-04T04:44:26.336Z,81.4
2018-12-04T04:45:26.267Z,69.4
2018-12-04T04:46:26.277Z,75.4
2018-12-04T04:47:26.287Z,81.4
2018-12-04T04:48:26.301Z,66.4
2018-12-04T04:49:26.276Z,72.4
2018-12-04T04:50:26.331Z,60.3
2018-12-04T04:51:26.277Z,57.3
2018-12-04T04:52:26.321Z,51.3
2018-12-04T04:53:26.244Z,60.3
2018-12-04T04:54:26.276Z,57.3
2018-12-04T04:55:26.266Z,57.3
2018-12-04T04:56:26.330Z,60.3
2018-12-04T04:57:26.269Z,60.3
2018-12-04T04:58:26.310Z,60.3
2018-12-04T04:59:26.232Z,57.3
2018-12-04T05:00:30.344Z,48.3
2018-12-04T05:01:29.880Z,48.3
2018-12-04T05:02:27.430Z,45.3
2018-12-04T05:17:37.240Z,42.3
2018-12-04T05:18:41.460Z,39.3
2018-12-04T05:19:41.466Z,39.3
2018-12-04T05:20:41.504Z,66.4
2018-12-04T05:21:41.432Z,72.4
2018-12-04T05:22:41.468Z,72.4
2018-12-04T05:23:41.477Z,72.4
2018-12-04T05:24:41.522Z,66.4
2018-12-04T05:25:41.464Z,60.3
2018-12-04T05:26:41.424Z,57.3
2018-12-04T05:27:41.452Z,72.4
2018-12-04T05:28:41.528Z,84.4
2018-12-04T05:29:41.527Z,69.4
2018-12-04T05:30:41.447Z,57.3
2018-12-04T05:31:41.439Z,54.3
2018-12-04T05:32:41.460Z,60.3
2018-12-04T05:33:41.455Z,72.4
2018-12-04T05:34:41.539Z,63.4
2018-12-04T05:35:41.448Z,63.4
2018-12-04T05:36:41.462Z,69.4
2018-12-04T05:37:41.484Z,75.4
2018-12-04T05:38:41.454Z,66.4
2018-12-04T05:39:41.493Z,60.3
2018-12-04T05:40:41.464Z,51.3
2018-12-04T05:41:41.443Z,51.3
2018-12-04T05:42:41.487Z,69.4
2018-12-04T05:43:41.429Z,60.3
2018-12-04T05:44:41.527Z,51.3
2018-12-04T05:45:41.513Z,57.3
2018-12-04T05:46:41.473Z,51.3
2018-12-04T05:47:41.631Z,66.4
2018-12-04T05:48:41.439Z,54.3
2018-12-04T05:49:41.459Z,45.3
2018-12-04T05:50:41.452Z,60.3
2018-12-04T05:51:41.445Z,57.3
2018-12-04T05:52:41.508Z,63.4
2018-12-04T05:53:41.419Z,60.3
2018-12-04T05:54:41.515Z,51.3
2018-12-04T05:55:41.515Z,51.3
2018-12-04T05:56:41.520Z,48.3
2018-12-04T05:57:41.512Z,54.3
2018-12-04T05:58:41.428Z,57.3
2018-12-04T05:59:41.424Z,60.3
2018-12-04T06:00:41.508Z,54.3
2018-12-04T06:01:41.449Z,51.3
2018-12-04T06:02:41.452Z,63.4
2018-12-04T06:03:42.196Z,63.4
2018-12-04T06:04:41.417Z,54.3
2018-12-04T06:05:41.435Z,51.3
2018-12-04T06:06:41.436Z,60.3
2018-12-04T06:07:41.513Z,57.3
2018-12-04T06:08:41.524Z,60.3
2018-12-04T06:09:41.416Z,51.3
2018-12-04T06:10:41.408Z,42.3
2018-12-04T06:11:41.445Z,51.3
2018-12-04T06:12:41.492Z,48.3
2018-12-04T06:13:41.405Z,48.3
2018-12-04T06:14:41.508Z,51.3
2018-12-04T06:15:41.405Z,48.3
2018-12-04T06:16:41.500Z,54.3
2018-12-04T06:17:41.437Z,51.3
2018-12-04T06:18:41.439Z,45.3
2018-12-04T06:19:41.428Z,48.3
2018-12-04T06:20:41.408Z,48.3
2018-12-04T06:21:41.481Z,51.3
2018-12-04T06:22:41.430Z,48.3
2018-12-04T06:23:41.434Z,66.4
2018-12-04T06:24:41.446Z,63.4
2018-12-04T06:25:41.435Z,63.4
2018-12-04T06:26:41.481Z,66.4
2018-12-04T06:27:41.484Z,66.4
2018-12-04T06:28:41.394Z,69.4
2018-12-04T06:29:41.439Z,60.3
2018-12-04T06:30:41.414Z,60.3
2018-12-04T06:31:41.476Z,78.4
2018-12-04T06:32:41.419Z,78.4
2018-12-04T06:33:41.424Z,81.4
2018-12-04T06:34:41.467Z,96.5
2018-12-04T06:35:41.439Z,81.4
2018-12-04T06:36:41.488Z,72.4
2018-12-04T06:37:41.400Z,66.4
2018-12-04T06:38:41.430Z,69.4
2018-12-04T06:39:41.417Z,69.4
2018-12-04T06:40:41.497Z,72.4
2018-12-04T06:41:41.562Z,69.4
2018-12-04T06:42:41.398Z,60.3
2018-12-04T06:43:41.458Z,60.3
2018-12-04T06:44:48.818Z,63.4
2018-12-04T06:45:41.605Z,60.3
2018-12-04T06:46:41.727Z,72.4
2018-12-04T06:47:44.299Z,51.3
2018-12-04T06:48:41.647Z,60.3
2018-12-04T06:49:41.612Z,63.4
2018-12-04T06:50:41.508Z,48.3
2018-12-04T06:51:41.497Z,36.3
2018-12-04T06:52:43.837Z,36.3
2018-12-04T06:53:41.734Z,36.3
2018-12-04T06:54:43.478Z,30.3
2018-12-04T06:55:41.497Z,39.3
2018-12-04T06:56:41.529Z,39.3
2018-12-04T06:57:41.711Z,60.3
2018-12-04T06:58:41.516Z,51.3
2018-12-04T06:59:41.511Z,54.3
2018-12-04T07:00:41.553Z,57.3
2018-12-04T07:01:41.538Z,48.3
2018-12-04T07:02:41.586Z,57.3
2018-12-04T07:03:41.654Z,48.3
2018-12-04T07:04:41.519Z,48.3
2018-12-04T07:05:41.533Z,66.4
2018-12-04T07:06:41.681Z,45.3
2018-12-04T07:07:41.648Z,48.3
2018-12-04T07:09:45.322Z,45.3
2018-12-04T07:10:45.466Z,45.3
2018-12-04T07:11:45.401Z,60.3
2018-12-04T07:12:45.472Z,45.3
2018-12-04T07:13:45.330Z,48.3
2018-12-04T07:14:45.399Z,51.3
2018-12-04T07:15:46.470Z,48.3
2018-12-04T07:16:45.397Z,57.3
2018-12-04T07:17:45.433Z,57.3
2018-12-04T07:18:45.471Z,48.3
2018-12-04T07:19:45.523Z,48.3
2018-12-04T07:20:45.377Z,54.3
2018-12-04T07:21:45.598Z,42.3
2018-12-04T07:22:45.391Z,66.4
2018-12-04T07:23:45.454Z,63.4
2018-12-04T07:24:45.380Z,45.3
2018-12-04T07:25:45.490Z,48.3
2018-12-04T07:26:45.595Z,60.3
2018-12-04T07:27:45.459Z,57.3
2018-12-04T07:28:45.482Z,60.3
2018-12-04T07:29:45.363Z,54.3
2018-12-04T07:30:45.465Z,54.3
2018-12-04T07:31:45.239Z,51.3
2018-12-04T07:32:45.235Z,63.4
2018-12-04T07:33:45.313Z,60.3
2018-12-04T07:34:45.328Z,57.3
2018-12-04T07:35:45.257Z,57.3
2018-12-04T07:36:45.262Z,60.3
2018-12-04T07:37:45.269Z,60.3
2018-12-04T07:38:45.242Z,45.3
2018-12-04T07:39:45.250Z,51.3
2018-12-04T07:40:45.311Z,57.3
2018-12-04T07:41:45.265Z,51.3
2018-12-04T07:42:45.212Z,57.3
2018-12-04T07:43:45.256Z,57.3
2018-12-04T07:44:45.240Z,51.3
2018-12-04T07:45:45.315Z,63.4
2018-12-04T07:46:45.306Z,72.4
2018-12-04T07:47:45.241Z,60.3
2018-12-04T07:48:45.221Z,57.3
2018-12-04T07:49:45.246Z,54.3
2018-12-04T07:50:45.326Z,66.4
2018-12-04T07:51:45.245Z,57.3
2018-12-04T07:52:45.242Z,57.3
2018-12-04T07:53:45.303Z,72.4
2018-12-04T07:54:45.241Z,72.4
2018-12-04T07:55:45.254Z,54.3
2018-12-04T07:56:45.240Z,72.4
2018-12-04T07:57:45.246Z,165.7
2018-12-04T07:58:45.319Z,165.7
2018-12-04T07:59:45.243Z,150.7
2018-12-04T08:00:45.342Z,63.4
2018-12-04T08:01:45.281Z,66.4
2018-12-04T08:02:45.288Z,54.3
2018-12-04T08:03:45.264Z,66.4
2018-12-04T08:04:45.286Z,60.3
2018-12-04T08:05:45.235Z,60.3
2018-12-04T08:06:45.235Z,57.3
2018-12-04T08:07:45.247Z,63.4
2018-12-04T08:08:45.242Z,69.4
2018-12-04T08:09:45.280Z,60.3
2018-12-04T08:10:45.225Z,57.3
2018-12-04T08:11:45.246Z,60.3
2018-12-04T08:12:45.323Z,60.3
2018-12-04T08:13:45.242Z,57.3
2018-12-04T08:14:45.251Z,60.3
2018-12-04T08:15:45.278Z,54.3
2018-12-04T08:16:45.316Z,54.3
2018-12-04T08:17:45.235Z,57.3
2018-12-04T08:18:45.240Z,57.3
2018-12-04T08:19:45.241Z,48.3
2018-12-04T08:20:45.274Z,45.3
2018-12-04T08:21:45.197Z,45.3
2018-12-04T08:22:45.242Z,45.3
2018-12-04T08:23:45.251Z,48.3
2018-12-04T08:24:45.299Z,48.3
2018-12-04T08:25:45.227Z,51.3
2018-12-04T08:26:45.281Z,102.5
2018-12-04T08:27:45.222Z,96.5
2018-12-04T08:28:45.310Z,135.6
2018-12-04T08:29:45.231Z,129.6
2018-12-04T08:30:45.229Z,42.3
2018-12-04T08:31:45.202Z,54.3
2018-12-04T08:32:45.325Z,129.6
2018-12-04T08:33:45.234Z,51.3
2018-12-04T08:34:45.223Z,36.3
2018-12-04T08:35:45.218Z,42.3
2018-12-04T08:36:45.241Z,45.3
2018-12-04T08:37:45.252Z,54.3
2018-12-04T08:38:45.223Z,45.3
2018-12-04T08:39:45.307Z,57.3
2018-12-04T08:40:45.263Z,45.3
2018-12-04T08:41:45.315Z,54.3
2018-12-04T08:42:45.206Z,48.3
2018-12-04T08:43:45.282Z,45.3
2018-12-04T08:44:45.221Z,48.3
2018-12-04T08:45:45.220Z,39.3
2018-12-04T08:46:45.373Z,42.3
2018-12-04T08:47:45.196Z,36.3
2018-12-04T08:48:45.227Z,48.3
2018-12-04T08:49:45.243Z,39.3
2018-12-04T08:50:45.285Z,54.3
2018-12-04T08:51:45.262Z,48.3
2018-12-04T08:52:45.247Z,69.4
2018-12-04T08:53:45.251Z,60.3
2018-12-04T08:54:45.299Z,42.3
2018-12-04T08:55:45.225Z,36.3
2018-12-04T08:56:45.291Z,39.3
2018-12-04T08:57:45.226Z,45.3
2018-12-04T08:58:45.192Z,45.3
2018-12-04T08:59:45.226Z,45.3
2018-12-04T09:00:45.303Z,48.3
2018-12-04T09:01:45.295Z,48.3
2018-12-04T09:02:45.221Z,48.3
2018-12-04T09:03:45.285Z,45.3
2018-12-04T09:04:45.199Z,45.3
2018-12-04T09:05:45.201Z,60.3
2018-12-04T09:06:45.260Z,51.3
2018-12-04T09:07:45.213Z,57.3
2018-12-04T09:08:45.310Z,45.3
2018-12-04T09:09:45.186Z,51.3
2018-12-04T09:10:45.213Z,51.3
2018-12-04T09:11:45.227Z,39.3
2018-12-04T09:12:45.221Z,66.4
2018-12-04T09:13:45.278Z,66.4
2018-12-04T09:14:45.221Z,69.4
2018-12-04T09:15:45.251Z,54.3
2018-12-04T09:16:45.288Z,54.3
2018-12-04T09:17:45.229Z,60.3
2018-12-04T09:18:45.242Z,54.3
2018-12-04T09:19:46.956Z,48.3
2018-12-04T09:20:45.248Z,57.3
2018-12-04T09:21:45.301Z,72.4
2018-12-04T09:22:45.504Z,66.4
2018-12-04T09:23:45.261Z,60.3
2018-12-04T09:24:45.385Z,63.4
2018-12-04T09:25:49.206Z,57.3
2018-12-04T09:26:45.329Z,66.4
2018-12-04T09:27:45.221Z,63.4
2018-12-04T09:28:45.261Z,54.3
2018-12-04T09:29:45.249Z,60.3
2018-12-04T09:30:46.598Z,60.3
2018-12-04T09:31:45.209Z,54.3
2018-12-04T09:32:45.237Z,60.3
2018-12-04T09:33:45.346Z,54.3
2018-12-04T09:34:45.225Z,72.4
2018-12-04T09:35:45.240Z,69.4
2018-12-04T09:36:45.192Z,66.4
2018-12-04T09:37:45.318Z,72.4
2018-12-04T09:38:45.265Z,66.4
2018-12-04T09:39:45.229Z,75.4
2018-12-04T09:40:45.216Z,75.4
2018-12-04T09:41:45.284Z,48.3
2018-12-04T09:42:45.236Z,48.3
2018-12-04T09:43:45.342Z,54.3
2018-12-04T09:44:45.215Z,66.4
2018-12-04T09:45:45.225Z,69.4
2018-12-04T09:46:45.223Z,75.4
2018-12-04T09:47:45.213Z,69.4
2018-12-04T09:48:45.315Z,48.3
2018-12-04T09:49:45.250Z,60.3
2018-12-04T09:50:45.345Z,63.4
2018-12-04T09:51:45.316Z,57.3
2018-12-04T09:52:45.239Z,54.3
2018-12-04T09:53:45.188Z,54.3
2018-12-04T09:54:45.203Z,51.3
2018-12-04T09:55:45.311Z,51.3
2018-12-04T09:56:45.202Z,54.3
2018-12-04T09:57:45.278Z,54.3
2018-12-04T09:58:45.183Z,60.3
2018-12-04T09:59:45.190Z,54.3
2018-12-04T10:00:45.215Z,66.4
2018-12-04T10:01:45.328Z,48.3
2018-12-04T10:02:45.204Z,60.3
2018-12-04T10:03:45.217Z,63.4
2018-12-04T10:04:45.186Z,57.3
2018-12-04T10:05:45.222Z,66.4
2018-12-04T10:06:45.282Z,66.4
2018-12-04T10:07:45.281Z,69.4
2018-12-04T10:08:45.220Z,60.3
2018-12-04T10:09:45.254Z,60.3
2018-12-04T10:10:45.230Z,60.3
2018-12-04T10:11:45.220Z,63.4
2018-12-04T10:12:45.279Z,54.3
2018-12-04T10:13:45.217Z,51.3
2018-12-04T10:14:45.283Z,48.3
2018-12-04T10:15:45.264Z,63.4
2018-12-04T10:16:45.210Z,60.3
2018-12-04T10:17:45.340Z,63.4
2018-12-04T10:18:48.926Z,75.4
2018-12-04T10:19:45.215Z,69.4
2018-12-04T10:20:45.200Z,57.3
2018-12-04T10:21:45.227Z,66.4
2018-12-04T10:22:45.276Z,57.3
2018-12-04T10:23:45.215Z,69.4
2018-12-04T10:24:45.216Z,75.4
2018-12-04T10:25:45.220Z,81.4
2018-12-04T10:26:45.185Z,69.4
2018-12-04T10:27:45.294Z,72.4
2018-12-04T10:28:45.232Z,72.4
2018-12-04T10:29:45.215Z,81.4
2018-12-04T10:30:45.216Z,75.4
2018-12-04T10:31:45.652Z,81.4
2018-12-04T10:32:45.285Z,81.4
2018-12-04T10:33:45.184Z,81.4
2018-12-04T10:34:45.218Z,75.4
2018-12-04T10:35:45.213Z,69.4
2018-12-04T10:36:47.301Z,63.4
2018-12-04T10:37:45.186Z,60.3
2018-12-04T10:38:45.211Z,63.4
2018-12-04T10:39:45.218Z,69.4
2018-12-04T10:40:45.338Z,75.4
2018-12-04T10:41:45.328Z,69.4
2018-12-04T10:42:45.245Z,75.4
2018-12-04T10:43:46.309Z,69.4
2018-12-04T10:44:46.332Z,78.4
2018-12-04T10:45:46.085Z,66.4
2018-12-04T10:46:49.311Z,69.4
2018-12-04T10:47:47.644Z,60.3
2018-12-04T10:48:45.908Z,54.3
2018-12-04T10:49:48.353Z,60.3
2018-12-04T10:50:45.967Z,63.4
2018-12-04T10:51:45.427Z,63.4
2018-12-04T10:52:45.657Z,66.4
2018-12-04T10:53:48.607Z,78.4
2018-12-04T10:54:46.404Z,75.4
2018-12-04T10:55:45.785Z,69.4
2018-12-04T10:56:46.393Z,93.5
2018-12-04T10:57:45.683Z,72.4
2018-12-04T10:58:46.596Z,69.4
2018-12-04T10:59:50.154Z,78.4
2018-12-04T11:00:46.040Z,69.4
2018-12-04T11:01:47.479Z,81.4
2018-12-04T11:02:49.165Z,75.4
2018-12-04T11:03:45.574Z,72.4
2018-12-04T11:04:45.777Z,81.4
2018-12-04T11:05:47.222Z,63.4
2018-12-04T11:06:46.981Z,60.3
2018-12-04T11:07:47.815Z,63.4
2018-12-04T11:08:45.534Z,72.4
2018-12-04T11:09:47.684Z,69.4
2018-12-04T11:10:45.603Z,60.3
2018-12-04T11:11:48.909Z,69.4
2018-12-04T11:12:46.259Z,72.4
2018-12-04T11:14:52.588Z,78.4
2018-12-04T11:15:50.842Z,63.4
2018-12-04T11:16:50.242Z,57.3
2018-12-04T11:17:53.362Z,51.3
2018-12-04T11:19:53.483Z,51.3
2018-12-04T11:20:54.516Z,60.3
2018-12-04T11:21:53.599Z,54.3
2018-12-04T11:22:52.149Z,57.3
2018-12-04T11:23:53.920Z,66.4
2018-12-04T11:25:58.666Z,60.3
2018-12-04T11:26:56.487Z,60.3
2018-12-04T11:27:56.915Z,57.3
2018-12-04T11:28:58.211Z,51.3
2018-12-04T11:29:56.761Z,63.4
2018-12-04T11:30:57.705Z,66.4
2018-12-04T11:31:56.868Z,60.3
2018-12-04T11:32:57.355Z,63.4
2018-12-04T11:33:57.962Z,69.4
2018-12-04T11:34:56.285Z,72.4
2018-12-04T11:35:55.633Z,66.4
2018-12-04T11:36:55.628Z,66.4
2018-12-04T11:37:55.553Z,63.4
2018-12-04T11:38:55.591Z,66.4
2018-12-04T11:39:55.663Z,63.4
2018-12-04T11:40:55.587Z,57.3
2018-12-04T11:41:55.653Z,60.3
2018-12-04T11:42:55.615Z,60.3
2018-12-04T11:43:56.850Z,57.3
2018-12-04T11:44:56.553Z,57.3
2018-12-04T11:45:56.286Z,54.3
2018-12-04T11:46:57.050Z,54.3
2018-12-04T11:47:56.994Z,54.3
2018-12-04T11:48:57.767Z,57.3
2018-12-04T11:49:56.797Z,57.3
2018-12-04T11:51:02.748Z,57.3
2018-12-04T11:51:57.752Z,60.3
2018-12-04T11:52:57.301Z,60.3
2018-12-04T11:53:55.903Z,57.3
2018-12-04T11:54:56.994Z,60.3
2018-12-04T11:55:55.978Z,66.4
2018-12-04T11:56:57.921Z,63.4
2018-12-04T11:57:57.376Z,48.3
2018-12-04T11:58:56.306Z,51.3
2018-12-04T11:59:57.628Z,51.3
2018-12-04T12:00:56.791Z,51.3
2018-12-04T12:01:56.622Z,60.3
2018-12-04T12:02:59.041Z,60.3
2018-12-04T12:03:57.124Z,63.4
2018-12-04T12:04:55.960Z,60.3
2018-12-04T12:05:56.688Z,63.4
2018-12-04T12:06:59.555Z,60.3
2018-12-04T12:07:58.626Z,60.3
2018-12-04T12:08:56.190Z,48.3
2018-12-04T12:09:55.604Z,66.4
2018-12-04T12:10:55.653Z,60.3
2018-12-04T12:13:03.259Z,66.4
2018-12-04T12:14:01.660Z,60.3
2018-12-04T12:15:01.674Z,54.3
2018-12-04T12:16:01.716Z,54.3
2018-12-04T12:17:01.663Z,45.3
2018-12-04T12:18:01.699Z,57.3
2018-12-04T12:19:01.631Z,51.3
2018-12-04T12:20:01.684Z,69.4
2018-12-04T12:21:01.621Z,81.4
2018-12-04T12:22:01.661Z,81.4
2018-12-04T12:23:01.737Z,66.4
2018-12-04T12:24:04.035Z,72.4
2018-12-04T12:25:04.967Z,60.3
2018-12-04T12:26:02.616Z,81.4
2018-12-04T12:27:02.536Z,87.4
2018-12-04T12:28:02.596Z,81.4
2018-12-04T12:29:02.043Z,75.4
2018-12-04T12:30:01.696Z,69.4
2018-12-04T12:31:11.547Z,69.4
2018-12-04T12:32:09.544Z,66.4
2018-12-04T12:33:07.519Z,60.3
2018-12-04T12:34:07.188Z,63.4
2018-12-04T12:35:07.668Z,60.3
2018-12-04T12:36:08.722Z,57.3
2018-12-04T12:37:08.406Z,69.4
2018-12-04T12:38:09.381Z,60.3
2018-12-04T12:39:08.067Z,63.4
2018-12-04T12:40:07.547Z,51.3
2018-12-04T12:41:07.705Z,60.3
2018-12-04T12:42:08.190Z,66.4
2018-12-04T12:43:07.395Z,66.4
2018-12-04T12:44:08.947Z,60.3
2018-12-04T12:45:06.876Z,75.4
2018-12-04T12:46:07.460Z,99.5
2018-12-04T12:47:06.814Z,78.4
2018-12-04T12:48:10.100Z,66.4
2018-12-04T12:49:06.990Z,84.4
2018-12-04T12:50:07.667Z,87.4
2018-12-04T12:51:06.655Z,63.4
2018-12-04T12:52:07.387Z,72.4
2018-12-04T12:53:07.579Z,51.3
2018-12-04T12:54:08.082Z,45.3
2018-12-04T12:55:06.943Z,42.3
2018-12-04T12:56:07.429Z,48.3
2018-12-04T12:57:06.853Z,42.3
2018-12-04T12:58:08.527Z,45.3
2018-12-04T12:59:06.695Z,51.3
2018-12-04T13:00:07.013Z,42.3
2018-12-04T13:02:11.062Z,42.3
2018-12-04T13:03:11.315Z,39.3
2018-12-04T13:04:08.638Z,36.3
2018-12-04T13:05:08.660Z,48.3
2018-12-04T13:06:08.700Z,51.3
2018-12-04T13:07:08.796Z,48.3
2018-12-04T13:08:08.777Z,42.3
2018-12-04T13:09:08.702Z,57.3
2018-12-04T13:10:08.646Z,75.4
2018-12-04T13:11:08.795Z,54.3
2018-12-04T13:12:08.707Z,45.3
2018-12-04T13:13:10.009Z,60.3
2018-12-04T13:14:08.783Z,141.6
2018-12-04T13:15:08.738Z,51.3
2018-12-04T13:16:08.709Z,66.4
2018-12-04T13:17:08.681Z,75.4
2018-12-04T13:18:09.653Z,66.4
2018-12-04T13:19:11.585Z,60.3
2018-12-04T13:20:09.232Z,48.3
2018-12-04T13:21:08.701Z,42.3
2018-12-04T13:22:08.672Z,36.3
2018-12-04T13:23:08.652Z,30.3
2018-12-04T13:24:08.646Z,30.3
2018-12-04T13:25:08.670Z,33.3
2018-12-04T13:26:08.679Z,42.3
2018-12-04T13:27:08.663Z,33.3
2018-12-04T13:28:08.724Z,30.3
2018-12-04T13:29:08.642Z,30.3
2018-12-04T13:30:08.659Z,33.3
2018-12-04T13:31:08.718Z,33.3
2018-12-04T13:32:08.621Z,27.3
2018-12-04T13:33:08.665Z,27.3
2018-12-04T13:34:08.649Z,30.3
2018-12-04T13:35:08.685Z,21.3
2018-12-04T13:36:08.727Z,21.3
2018-12-04T13:37:08.651Z,24.3
2018-12-04T13:38:08.657Z,30.3
2018-12-04T13:39:08.759Z,24.3